HOURLY OBS INDEX

071

Southern Tablelands - Snowy Mtns

PERISHER VALLEY AWS

Site: 071075
Alt: 1738.0m
16km ENE of MT KOSCIUSZKO


  Time     Wind        Temp  DP   Baro     Rain since   Rain past  Vis(m), Cloud(base in m), Weather
  local        km/h                         9am  last   hr   10m    
Sun 18:00   SW  9/ 15  -0.4 -3.1  ------    0.0   0.0   0.0   0.0   ----- 
Sun 18:30   SW  7/ 19  -0.7 -3.2  ------    0.0   0.0   0.0   0.0   ----- 
Sun 19:00   SW  4/ 15  -0.7 -2.4  ------    0.0   0.0   0.0   0.0   ----- 
Sun 19:30   SW  9/ 22  -0.7 -1.3  ------    0.0   0.0   0.0   0.0   ----- 
Sun 20:00  WSW 11/ 22  -0.2 -0.6  ------    0.0   0.0   0.0   0.0   ----- 
Sun 20:30  WSW  9/ 19  -0.6 -1.2  ------    0.0   0.0   0.0   0.0   ----- 
Sun 21:00  WSW  6/ 17  -0.8 -1.2  ------    0.0   0.0   0.0   0.0   ----- 
Sun 21:30   SW  6/ 19  -0.9 -1.2  ------    0.0   0.0   0.0   0.0   ----- 
Sun 22:00    W  6/ 15  -1.2 -1.5  ------    0.0   0.0   0.0   0.0   ----- 
Sun 22:30  WSW  7/ 19  -0.7 -1.0  ------    0.0   0.0   0.0   0.0   ----- 
Sun 23:00   SW  7/ 19  -1.0 -1.7  ------    0.0   0.0   0.0   0.0   ----- 

THREDBO AWS

Site: 071032
Alt: 1957.0m
7km SE of MT KOSCIUSZKO


  Time     Wind        Temp  DP   Baro     Rain since   Rain past  Vis(m), Cloud(base in m), Weather
  local        km/h                         9am  last   hr   10m    
Sun 18:00   SW 26/ 33  -1.4 -1.7  1023.4    0.2   0.0   0.0   0.0   ----- 
Sun 18:30   SW 28/ 37  -1.2 -1.5  1023.6    0.2   0.0   0.0   0.0   ----- 
Sun 19:00   SW 24/ 35  -1.2 -1.5  1024.0    0.2   0.0   0.0   0.0   ----- 
Sun 19:30   SW 22/ 28  -1.3 -1.6  1024.3    0.2   0.0   0.0   0.0   ----- 
Sun 20:00   SW 26/ 37  -1.2 -1.5  1024.5    0.2   0.0   0.0   0.0   ----- 
Sun 20:30   SW 24/ 35  -1.3 -1.6  1024.6    0.2   0.0   0.0   0.0   ----- 
Sun 21:00    S 13/ 24  -1.1 -1.4  1025.0    0.2   0.0   0.0   0.0   ----- 
Sun 21:30  SSW 20/ 30  -1.0 -1.3  1025.0    0.2   0.0   0.0   0.0   ----- 
Sun 22:00  SSW 22/ 30  -0.7 -1.0  1024.8    0.2   0.0   0.0   0.0   ----- 
Sun 22:30  SSW 26/ 32  -0.9 -1.2  1025.2    0.2   0.0   0.0   0.0   ----- 
Sun 23:00  SSW 20/ 28  -1.0 -1.3  1025.4    0.2   0.0   0.0   0.0   -----